sensor_id;sensor_type;location;lat;lon;timestamp;P1;durP1;ratioP1;P2;durP2;ratioP2
48554;SDS011;34336;48.270;16.716;2024-01-06T00:00:31;29.42;;;20.83;;
48554;SDS011;34336;48.270;16.716;2024-01-06T00:02:59;33.97;;;22.38;;
48554;SDS011;34336;48.270;16.716;2024-01-06T00:05:26;31.58;;;20.30;;
48554;SDS011;34336;48.270;16.716;2024-01-06T00:07:54;53.63;;;36.88;;
48554;SDS011;34336;48.270;16.716;2024-01-06T00:10:22;41.08;;;28.05;;
48554;SDS011;34336;48.270;16.716;2024-01-06T00:12:50;40.83;;;27.45;;
48554;SDS011;34336;48.270;16.716;2024-01-06T00:15:18;40.60;;;26.77;;
48554;SDS011;34336;48.270;16.716;2024-01-06T00:17:45;35.45;;;20.92;;
48554;SDS011;34336;48.270;16.716;2024-01-06T00:20:13;29.90;;;20.02;;
48554;SDS011;34336;48.270;16.716;2024-01-06T00:22:41;29.98;;;20.98;;
48554;SDS011;34336;48.270;16.716;2024-01-06T00:25:11;32.60;;;20.10;;
48554;SDS011;34336;48.270;16.716;2024-01-06T00:27:38;31.35;;;20.02;;
48554;SDS011;34336;48.270;16.716;2024-01-06T00:30:06;31.80;;;21.73;;
48554;SDS011;34336;48.270;16.716;2024-01-06T00:32:35;31.13;;;21.45;;
48554;SDS011;34336;48.270;16.716;2024-01-06T00:35:03;33.97;;;21.38;;
48554;SDS011;34336;48.270;16.716;2024-01-06T00:37:31;30.38;;;20.75;;
48554;SDS011;34336;48.270;16.716;2024-01-06T00:39:59;32.38;;;19.67;;
48554;SDS011;34336;48.270;16.716;2024-01-06T00:42:27;29.00;;;20.05;;
48554;SDS011;34336;48.270;16.716;2024-01-06T00:44:55;33.05;;;21.75;;
48554;SDS011;34336;48.270;16.716;2024-01-06T00:47:23;34.58;;;23.45;;
48554;SDS011;34336;48.270;16.716;2024-01-06T00:49:51;37.65;;;23.92;;
48554;SDS011;34336;48.270;16.716;2024-01-06T00:52:18;38.08;;;25.58;;
48554;SDS011;34336;48.270;16.716;2024-01-06T00:54:46;43.88;;;27.20;;
48554;SDS011;34336;48.270;16.716;2024-01-06T00:57:14;45.72;;;27.95;;
48554;SDS011;34336;48.270;16.716;2024-01-06T00:59:42;43.42;;;28.70;;
48554;SDS011;34336;48.270;16.716;2024-01-06T01:02:10;45.33;;;28.13;;
48554;SDS011;34336;48.270;16.716;2024-01-06T01:04:37;44.47;;;28.90;;
48554;SDS011;34336;48.270;16.716;2024-01-06T01:07:05;46.42;;;29.40;;
48554;SDS011;34336;48.270;16.716;2024-01-06T01:09:34;45.90;;;29.08;;
48554;SDS011;34336;48.270;16.716;2024-01-06T01:12:02;45.15;;;28.90;;
48554;SDS011;34336;48.270;16.716;2024-01-06T01:14:30;44.28;;;28.83;;
48554;SDS011;34336;48.270;16.716;2024-01-06T01:16:57;48.53;;;29.35;;
48554;SDS011;34336;48.270;16.716;2024-01-06T01:19:25;43.63;;;29.58;;
48554;SDS011;34336;48.270;16.716;2024-01-06T01:21:53;48.45;;;29.83;;
48554;SDS011;34336;48.270;16.716;2024-01-06T01:24:22;41.13;;;28.05;;
48554;SDS011;34336;48.270;16.716;2024-01-06T01:26:50;45.42;;;28.85;;
48554;SDS011;34336;48.270;16.716;2024-01-06T01:29:17;42.40;;;28.40;;
48554;SDS011;34336;48.270;16.716;2024-01-06T01:31:46;49.58;;;28.67;;
48554;SDS011;34336;48.270;16.716;2024-01-06T01:34:14;42.70;;;28.88;;
48554;SDS011;34336;48.270;16.716;2024-01-06T01:36:43;42.22;;;28.45;;
48554;SDS011;34336;48.270;16.716;2024-01-06T01:39:11;48.38;;;29.88;;
48554;SDS011;34336;48.270;16.716;2024-01-06T01:41:39;44.28;;;29.38;;
48554;SDS011;34336;48.270;16.716;2024-01-06T01:44:07;47.58;;;30.83;;
48554;SDS011;34336;48.270;16.716;2024-01-06T01:46:35;44.08;;;31.50;;
48554;SDS011;34336;48.270;16.716;2024-01-06T01:49:03;41.67;;;28.77;;
48554;SDS011;34336;48.270;16.716;2024-01-06T01:51:35;42.75;;;27.00;;
48554;SDS011;34336;48.270;16.716;2024-01-06T01:54:03;44.28;;;27.65;;
48554;SDS011;34336;48.270;16.716;2024-01-06T01:56:33;44.20;;;28.52;;
48554;SDS011;34336;48.270;16.716;2024-01-06T01:59:01;46.83;;;30.42;;
48554;SDS011;34336;48.270;16.716;2024-01-06T02:01:31;50.83;;;30.58;;
48554;SDS011;34336;48.270;16.716;2024-01-06T02:03:59;48.58;;;30.88;;
48554;SDS011;34336;48.270;16.716;2024-01-06T02:06:27;45.05;;;30.85;;
48554;SDS011;34336;48.270;16.716;2024-01-06T02:08:55;50.20;;;30.20;;
48554;SDS011;34336;48.270;16.716;2024-01-06T02:11:23;47.45;;;30.40;;
48554;SDS011;34336;48.270;16.716;2024-01-06T02:13:50;53.47;;;29.98;;
48554;SDS011;34336;48.270;16.716;2024-01-06T02:16:18;45.50;;;29.15;;
48554;SDS011;34336;48.270;16.716;2024-01-06T02:18:46;49.75;;;29.98;;
48554;SDS011;34336;48.270;16.716;2024-01-06T02:21:14;46.92;;;29.25;;
48554;SDS011;34336;48.270;16.716;2024-01-06T02:23:42;43.80;;;30.17;;
48554;SDS011;34336;48.270;16.716;2024-01-06T02:26:10;47.22;;;30.00;;
48554;SDS011;34336;48.270;16.716;2024-01-06T02:28:39;46.30;;;28.65;;
48554;SDS011;34336;48.270;16.716;2024-01-06T02:31:07;43.58;;;29.08;;
48554;SDS011;34336;48.270;16.716;2024-01-06T02:33:35;47.50;;;28.58;;
48554;SDS011;34336;48.270;16.716;2024-01-06T02:36:03;44.97;;;28.65;;
48554;SDS011;34336;48.270;16.716;2024-01-06T02:38:31;42.53;;;28.23;;
48554;SDS011;34336;48.270;16.716;2024-01-06T02:40:59;43.30;;;28.33;;
48554;SDS011;34336;48.270;16.716;2024-01-06T02:43:27;41.63;;;27.73;;
48554;SDS011;34336;48.270;16.716;2024-01-06T02:45:54;43.53;;;27.25;;
48554;SDS011;34336;48.270;16.716;2024-01-06T02:48:22;45.38;;;27.75;;
48554;SDS011;34336;48.270;16.716;2024-01-06T02:50:50;43.80;;;27.25;;
48554;SDS011;34336;48.270;16.716;2024-01-06T02:53:18;50.05;;;27.98;;
48554;SDS011;34336;48.270;16.716;2024-01-06T02:55:45;43.22;;;27.50;;
48554;SDS011;34336;48.270;16.716;2024-01-06T02:58:13;45.28;;;27.95;;
48554;SDS011;34336;48.270;16.716;2024-01-06T03:00:41;36.88;;;25.58;;
48554;SDS011;34336;48.270;16.716;2024-01-06T03:03:09;43.58;;;27.42;;
48554;SDS011;34336;48.270;16.716;2024-01-06T03:05:37;43.20;;;27.08;;
48554;SDS011;34336;48.270;16.716;2024-01-06T03:08:05;41.92;;;29.17;;
48554;SDS011;34336;48.270;16.716;2024-01-06T03:10:33;45.53;;;28.80;;
48554;SDS011;34336;48.270;16.716;2024-01-06T03:13:01;53.17;;;32.15;;
48554;SDS011;34336;48.270;16.716;2024-01-06T03:15:28;50.38;;;30.23;;
48554;SDS011;34336;48.270;16.716;2024-01-06T03:17:56;48.88;;;30.30;;
48554;SDS011;34336;48.270;16.716;2024-01-06T03:20:24;49.55;;;29.90;;
48554;SDS011;34336;48.270;16.716;2024-01-06T03:22:52;46.78;;;29.35;;
48554;SDS011;34336;48.270;16.716;2024-01-06T03:25:19;46.63;;;28.10;;
48554;SDS011;34336;48.270;16.716;2024-01-06T03:27:47;41.90;;;27.95;;
48554;SDS011;34336;48.270;16.716;2024-01-06T03:30:15;45.45;;;28.13;;
48554;SDS011;34336;48.270;16.716;2024-01-06T03:32:43;44.47;;;27.70;;
48554;SDS011;34336;48.270;16.716;2024-01-06T03:35:10;43.88;;;27.13;;
48554;SDS011;34336;48.270;16.716;2024-01-06T03:37:38;41.67;;;26.98;;
48554;SDS011;34336;48.270;16.716;2024-01-06T03:40:06;44.20;;;27.55;;
48554;SDS011;34336;48.270;16.716;2024-01-06T03:42:34;39.72;;;26.88;;
48554;SDS011;34336;48.270;16.716;2024-01-06T03:45:03;41.85;;;26.83;;
48554;SDS011;34336;48.270;16.716;2024-01-06T03:47:31;39.80;;;25.70;;
48554;SDS011;34336;48.270;16.716;2024-01-06T03:49:59;40.78;;;26.15;;
48554;SDS011;34336;48.270;16.716;2024-01-06T03:52:27;40.22;;;26.25;;
48554;SDS011;34336;48.270;16.716;2024-01-06T03:54:55;43.65;;;26.80;;
48554;SDS011;34336;48.270;16.716;2024-01-06T03:57:23;45.88;;;27.05;;
48554;SDS011;34336;48.270;16.716;2024-01-06T03:59:51;39.35;;;24.90;;
48554;SDS011;34336;48.270;16.716;2024-01-06T04:02:18;41.70;;;26.10;;
48554;SDS011;34336;48.270;16.716;2024-01-06T04:04:46;42.45;;;27.85;;
48554;SDS011;34336;48.270;16.716;2024-01-06T04:07:14;45.55;;;29.00;;
48554;SDS011;34336;48.270;16.716;2024-01-06T04:09:42;43.72;;;27.80;;
48554;SDS011;34336;48.270;16.716;2024-01-06T04:12:10;40.13;;;26.33;;
48554;SDS011;34336;48.270;16.716;2024-01-06T04:14:38;44.20;;;27.90;;
48554;SDS011;34336;48.270;16.716;2024-01-06T04:17:06;48.40;;;27.10;;
48554;SDS011;34336;48.270;16.716;2024-01-06T04:19:33;44.42;;;26.98;;
48554;SDS011;34336;48.270;16.716;2024-01-06T04:22:01;39.90;;;26.48;;
48554;SDS011;34336;48.270;16.716;2024-01-06T04:24:29;44.40;;;27.58;;
48554;SDS011;34336;48.270;16.716;2024-01-06T04:26:57;41.70;;;25.88;;
48554;SDS011;34336;48.270;16.716;2024-01-06T04:29:24;41.17;;;26.88;;
48554;SDS011;34336;48.270;16.716;2024-01-06T04:31:55;41.97;;;26.38;;
48554;SDS011;34336;48.270;16.716;2024-01-06T04:34:23;42.95;;;26.70;;
48554;SDS011;34336;48.270;16.716;2024-01-06T04:36:50;40.00;;;26.80;;
48554;SDS011;34336;48.270;16.716;2024-01-06T04:39:18;45.95;;;27.50;;
48554;SDS011;34336;48.270;16.716;2024-01-06T04:41:46;46.38;;;28.95;;
48554;SDS011;34336;48.270;16.716;2024-01-06T04:44:14;41.97;;;26.95;;
48554;SDS011;34336;48.270;16.716;2024-01-06T04:46:42;44.00;;;27.33;;
48554;SDS011;34336;48.270;16.716;2024-01-06T04:49:10;43.08;;;27.92;;
48554;SDS011;34336;48.270;16.716;2024-01-06T04:51:37;44.45;;;29.10;;
48554;SDS011;34336;48.270;16.716;2024-01-06T04:54:05;49.63;;;29.95;;
48554;SDS011;34336;48.270;16.716;2024-01-06T04:56:33;48.53;;;30.38;;
48554;SDS011;34336;48.270;16.716;2024-01-06T04:59:02;45.45;;;30.33;;
48554;SDS011;34336;48.270;16.716;2024-01-06T05:01:30;61.45;;;33.30;;
48554;SDS011;34336;48.270;16.716;2024-01-06T05:03:58;57.92;;;33.95;;
48554;SDS011;34336;48.270;16.716;2024-01-06T05:06:26;59.65;;;34.05;;
48554;SDS011;34336;48.270;16.716;2024-01-06T05:08:53;58.65;;;32.28;;
48554;SDS011;34336;48.270;16.716;2024-01-06T05:11:21;54.53;;;33.97;;
48554;SDS011;34336;48.270;16.716;2024-01-06T05:13:49;55.75;;;33.63;;
48554;SDS011;34336;48.270;16.716;2024-01-06T05:16:17;52.67;;;33.63;;
48554;SDS011;34336;48.270;16.716;2024-01-06T05:18:44;61.67;;;34.85;;
48554;SDS011;34336;48.270;16.716;2024-01-06T05:21:12;57.13;;;34.28;;
48554;SDS011;34336;48.270;16.716;2024-01-06T05:23:40;60.25;;;35.35;;
48554;SDS011;34336;48.270;16.716;2024-01-06T05:26:08;56.55;;;34.53;;
48554;SDS011;34336;48.270;16.716;2024-01-06T05:28:35;63.17;;;33.72;;
48554;SDS011;34336;48.270;16.716;2024-01-06T05:31:03;61.60;;;33.75;;
48554;SDS011;34336;48.270;16.716;2024-01-06T05:33:31;56.72;;;34.88;;
48554;SDS011;34336;48.270;16.716;2024-01-06T05:35:59;59.35;;;33.15;;
48554;SDS011;34336;48.270;16.716;2024-01-06T05:38:27;62.95;;;33.13;;
48554;SDS011;34336;48.270;16.716;2024-01-06T05:40:55;57.25;;;33.33;;
48554;SDS011;34336;48.270;16.716;2024-01-06T05:43:23;58.13;;;33.95;;
48554;SDS011;34336;48.270;16.716;2024-01-06T05:45:50;54.53;;;33.55;;
48554;SDS011;34336;48.270;16.716;2024-01-06T05:48:18;53.53;;;32.50;;
48554;SDS011;34336;48.270;16.716;2024-01-06T05:50:46;52.10;;;32.72;;
48554;SDS011;34336;48.270;16.716;2024-01-06T05:53:14;48.75;;;30.58;;
48554;SDS011;34336;48.270;16.716;2024-01-06T05:55:45;55.10;;;29.98;;
48554;SDS011;34336;48.270;16.716;2024-01-06T05:58:12;48.03;;;29.65;;
48554;SDS011;34336;48.270;16.716;2024-01-06T06:00:40;51.22;;;29.40;;
48554;SDS011;34336;48.270;16.716;2024-01-06T06:03:08;46.08;;;30.35;;
48554;SDS011;34336;48.270;16.716;2024-01-06T06:05:36;48.30;;;29.55;;
48554;SDS011;34336;48.270;16.716;2024-01-06T06:08:04;44.08;;;27.85;;
48554;SDS011;34336;48.270;16.716;2024-01-06T06:10:31;44.83;;;28.23;;
48554;SDS011;34336;48.270;16.716;2024-01-06T06:13:08;45.20;;;27.52;;
48554;SDS011;34336;48.270;16.716;2024-01-06T06:15:37;42.72;;;27.85;;
48554;SDS011;34336;48.270;16.716;2024-01-06T06:18:05;42.67;;;27.20;;
48554;SDS011;34336;48.270;16.716;2024-01-06T06:20:33;46.97;;;27.75;;
48554;SDS011;34336;48.270;16.716;2024-01-06T06:23:01;41.72;;;26.98;;
48554;SDS011;34336;48.270;16.716;2024-01-06T06:25:28;43.60;;;27.13;;
48554;SDS011;34336;48.270;16.716;2024-01-06T06:27:56;41.83;;;26.30;;
48554;SDS011;34336;48.270;16.716;2024-01-06T06:30:24;46.35;;;26.83;;
48554;SDS011;34336;48.270;16.716;2024-01-06T06:32:52;42.75;;;27.88;;
48554;SDS011;34336;48.270;16.716;2024-01-06T06:35:21;46.70;;;29.10;;
48554;SDS011;34336;48.270;16.716;2024-01-06T06:37:49;50.58;;;29.50;;
48554;SDS011;34336;48.270;16.716;2024-01-06T06:40:17;51.28;;;30.70;;
48554;SDS011;34336;48.270;16.716;2024-01-06T06:42:44;48.22;;;30.33;;
48554;SDS011;34336;48.270;16.716;2024-01-06T06:45:12;49.25;;;29.52;;
48554;SDS011;34336;48.270;16.716;2024-01-06T06:47:40;50.65;;;29.77;;
48554;SDS011;34336;48.270;16.716;2024-01-06T06:50:08;51.30;;;30.65;;
48554;SDS011;34336;48.270;16.716;2024-01-06T06:52:36;49.50;;;31.25;;
48554;SDS011;34336;48.270;16.716;2024-01-06T06:55:04;50.10;;;30.33;;
48554;SDS011;34336;48.270;16.716;2024-01-06T06:57:31;52.17;;;31.15;;
48554;SDS011;34336;48.270;16.716;2024-01-06T06:59:59;51.47;;;31.13;;
48554;SDS011;34336;48.270;16.716;2024-01-06T07:02:27;62.00;;;33.40;;
48554;SDS011;34336;48.270;16.716;2024-01-06T07:04:55;52.10;;;32.25;;
48554;SDS011;34336;48.270;16.716;2024-01-06T07:07:22;48.17;;;30.58;;
48554;SDS011;34336;48.270;16.716;2024-01-06T07:09:50;54.97;;;31.73;;
48554;SDS011;34336;48.270;16.716;2024-01-06T07:12:18;55.92;;;33.35;;
48554;SDS011;34336;48.270;16.716;2024-01-06T07:14:46;55.40;;;32.00;;
48554;SDS011;34336;48.270;16.716;2024-01-06T07:17:14;56.53;;;33.65;;
48554;SDS011;34336;48.270;16.716;2024-01-06T07:19:41;57.28;;;34.00;;
48554;SDS011;34336;48.270;16.716;2024-01-06T07:22:10;60.65;;;34.88;;
48554;SDS011;34336;48.270;16.716;2024-01-06T07:24:37;64.95;;;36.53;;
48554;SDS011;34336;48.270;16.716;2024-01-06T07:27:05;59.58;;;36.08;;
48554;SDS011;34336;48.270;16.716;2024-01-06T07:29:33;66.05;;;37.60;;
48554;SDS011;34336;48.270;16.716;2024-01-06T07:32:01;68.75;;;37.28;;
48554;SDS011;34336;48.270;16.716;2024-01-06T07:34:28;64.85;;;37.83;;
48554;SDS011;34336;48.270;16.716;2024-01-06T07:36:56;67.18;;;38.33;;
48554;SDS011;34336;48.270;16.716;2024-01-06T07:39:24;70.47;;;38.88;;
48554;SDS011;34336;48.270;16.716;2024-01-06T07:41:52;68.57;;;38.20;;
48554;SDS011;34336;48.270;16.716;2024-01-06T07:44:20;60.55;;;36.38;;
48554;SDS011;34336;48.270;16.716;2024-01-06T07:46:52;64.80;;;37.28;;
48554;SDS011;34336;48.270;16.716;2024-01-06T07:49:20;61.97;;;36.50;;
48554;SDS011;34336;48.270;16.716;2024-01-06T07:51:48;59.35;;;36.10;;
48554;SDS011;34336;48.270;16.716;2024-01-06T07:54:16;65.32;;;37.22;;
48554;SDS011;34336;48.270;16.716;2024-01-06T07:56:43;63.97;;;36.42;;
48554;SDS011;34336;48.270;16.716;2024-01-06T07:59:12;63.72;;;37.10;;
48554;SDS011;34336;48.270;16.716;2024-01-06T08:01:40;61.58;;;36.10;;
48554;SDS011;34336;48.270;16.716;2024-01-06T08:04:09;63.83;;;37.22;;
48554;SDS011;34336;48.270;16.716;2024-01-06T08:06:37;70.35;;;40.40;;
48554;SDS011;34336;48.270;16.716;2024-01-06T08:09:05;70.20;;;40.45;;
48554;SDS011;34336;48.270;16.716;2024-01-06T08:11:33;60.78;;;37.83;;
48554;SDS011;34336;48.270;16.716;2024-01-06T08:14:00;64.38;;;37.60;;
48554;SDS011;34336;48.270;16.716;2024-01-06T08:16:29;65.82;;;37.80;;
48554;SDS011;34336;48.270;16.716;2024-01-06T08:18:56;64.53;;;37.92;;
48554;SDS011;34336;48.270;16.716;2024-01-06T08:21:24;64.95;;;37.15;;
48554;SDS011;34336;48.270;16.716;2024-01-06T08:23:52;63.22;;;38.47;;
48554;SDS011;34336;48.270;16.716;2024-01-06T08:26:20;64.30;;;38.40;;
48554;SDS011;34336;48.270;16.716;2024-01-06T08:28:47;59.78;;;36.85;;
48554;SDS011;34336;48.270;16.716;2024-01-06T08:31:15;64.07;;;38.58;;
48554;SDS011;34336;48.270;16.716;2024-01-06T08:33:43;67.20;;;39.08;;
48554;SDS011;34336;48.270;16.716;2024-01-06T08:36:11;62.67;;;38.08;;
48554;SDS011;34336;48.270;16.716;2024-01-06T08:38:39;64.63;;;37.55;;
48554;SDS011;34336;48.270;16.716;2024-01-06T08:41:06;64.35;;;37.38;;
48554;SDS011;34336;48.270;16.716;2024-01-06T08:43:34;70.90;;;40.05;;
48554;SDS011;34336;48.270;16.716;2024-01-06T08:46:02;62.72;;;38.28;;
48554;SDS011;34336;48.270;16.716;2024-01-06T08:48:30;64.75;;;37.60;;
48554;SDS011;34336;48.270;16.716;2024-01-06T08:51:01;59.67;;;36.53;;
48554;SDS011;34336;48.270;16.716;2024-01-06T08:53:29;66.70;;;37.47;;
48554;SDS011;34336;48.270;16.716;2024-01-06T08:55:57;62.17;;;36.75;;
48554;SDS011;34336;48.270;16.716;2024-01-06T08:58:25;64.13;;;37.33;;
48554;SDS011;34336;48.270;16.716;2024-01-06T09:00:52;94.95;;;62.05;;
48554;SDS011;34336;48.270;16.716;2024-01-06T09:03:20;70.30;;;40.53;;
48554;SDS011;34336;48.270;16.716;2024-01-06T09:05:54;68.97;;;39.38;;
48554;SDS011;34336;48.270;16.716;2024-01-06T09:08:22;67.65;;;39.00;;
48554;SDS011;34336;48.270;16.716;2024-01-06T09:10:50;73.13;;;40.75;;
48554;SDS011;34336;48.270;16.716;2024-01-06T09:13:22;69.35;;;39.80;;
48554;SDS011;34336;48.270;16.716;2024-01-06T09:15:51;73.03;;;38.90;;
48554;SDS011;34336;48.270;16.716;2024-01-06T09:18:19;72.85;;;39.83;;
48554;SDS011;34336;48.270;16.716;2024-01-06T09:20:47;69.90;;;38.75;;
48554;SDS011;34336;48.270;16.716;2024-01-06T09:23:15;70.55;;;40.72;;
48554;SDS011;34336;48.270;16.716;2024-01-06T09:25:44;109.20;;;61.42;;
48554;SDS011;34336;48.270;16.716;2024-01-06T09:28:12;68.45;;;38.83;;
48554;SDS011;34336;48.270;16.716;2024-01-06T09:30:40;79.18;;;49.53;;
48554;SDS011;34336;48.270;16.716;2024-01-06T09:33:07;58.42;;;35.85;;
48554;SDS011;34336;48.270;16.716;2024-01-06T09:35:35;62.42;;;36.75;;
48554;SDS011;34336;48.270;16.716;2024-01-06T09:38:03;64.72;;;37.40;;
48554;SDS011;34336;48.270;16.716;2024-01-06T09:40:31;64.07;;;37.35;;
48554;SDS011;34336;48.270;16.716;2024-01-06T09:42:59;58.42;;;36.90;;
48554;SDS011;34336;48.270;16.716;2024-01-06T09:45:28;62.72;;;35.15;;
48554;SDS011;34336;48.270;16.716;2024-01-06T09:47:56;57.92;;;35.63;;
48554;SDS011;34336;48.270;16.716;2024-01-06T09:50:25;59.65;;;35.22;;
48554;SDS011;34336;48.270;16.716;2024-01-06T09:52:53;54.28;;;34.25;;
48554;SDS011;34336;48.270;16.716;2024-01-06T09:55:30;60.08;;;34.00;;
48554;SDS011;34336;48.270;16.716;2024-01-06T09:57:58;55.47;;;33.95;;
48554;SDS011;34336;48.270;16.716;2024-01-06T10:00:29;55.72;;;33.05;;
48554;SDS011;34336;48.270;16.716;2024-01-06T10:02:57;52.65;;;32.72;;
48554;SDS011;34336;48.270;16.716;2024-01-06T10:05:24;53.05;;;33.10;;
48554;SDS011;34336;48.270;16.716;2024-01-06T10:07:52;52.97;;;33.35;;
48554;SDS011;34336;48.270;16.716;2024-01-06T10:10:21;51.25;;;32.55;;
48554;SDS011;34336;48.270;16.716;2024-01-06T10:12:50;51.25;;;32.70;;
48554;SDS011;34336;48.270;16.716;2024-01-06T10:15:21;54.53;;;32.10;;
48554;SDS011;34336;48.270;16.716;2024-01-06T10:17:48;49.00;;;29.85;;
48554;SDS011;34336;48.270;16.716;2024-01-06T10:20:17;52.00;;;32.20;;
48554;SDS011;34336;48.270;16.716;2024-01-06T10:22:44;49.88;;;30.65;;
48554;SDS011;34336;48.270;16.716;2024-01-06T10:25:12;49.67;;;29.70;;
48554;SDS011;34336;48.270;16.716;2024-01-06T10:27:41;49.88;;;30.17;;
48554;SDS011;34336;48.270;16.716;2024-01-06T10:30:09;53.60;;;31.60;;
48554;SDS011;34336;48.270;16.716;2024-01-06T10:32:39;56.13;;;33.95;;
48554;SDS011;34336;48.270;16.716;2024-01-06T10:35:06;52.25;;;32.22;;
48554;SDS011;34336;48.270;16.716;2024-01-06T10:37:34;51.38;;;33.00;;
48554;SDS011;34336;48.270;16.716;2024-01-06T10:40:06;48.13;;;30.63;;
48554;SDS011;34336;48.270;16.716;2024-01-06T10:42:34;51.72;;;30.60;;
48554;SDS011;34336;48.270;16.716;2024-01-06T10:45:03;45.97;;;28.42;;
48554;SDS011;34336;48.270;16.716;2024-01-06T10:47:35;44.58;;;28.65;;
48554;SDS011;34336;48.270;16.716;2024-01-06T10:50:03;47.50;;;28.95;;
48554;SDS011;34336;48.270;16.716;2024-01-06T10:52:31;43.08;;;28.67;;
48554;SDS011;34336;48.270;16.716;2024-01-06T10:54:59;44.75;;;28.00;;
48554;SDS011;34336;48.270;16.716;2024-01-06T10:57:27;46.10;;;27.90;;
48554;SDS011;34336;48.270;16.716;2024-01-06T10:59:58;40.33;;;27.35;;
48554;SDS011;34336;48.270;16.716;2024-01-06T11:02:26;39.22;;;26.65;;
48554;SDS011;34336;48.270;16.716;2024-01-06T11:04:54;42.65;;;28.20;;
48554;SDS011;34336;48.270;16.716;2024-01-06T11:07:23;40.05;;;26.75;;
48554;SDS011;34336;48.270;16.716;2024-01-06T11:09:56;44.97;;;29.40;;
48554;SDS011;34336;48.270;16.716;2024-01-06T11:12:29;43.97;;;27.33;;
48554;SDS011;34336;48.270;16.716;2024-01-06T11:14:57;39.13;;;26.48;;
48554;SDS011;34336;48.270;16.716;2024-01-06T11:20:12;40.47;;;25.13;;
48554;SDS011;34336;48.270;16.716;2024-01-06T11:22:39;38.72;;;25.88;;
48554;SDS011;34336;48.270;16.716;2024-01-06T11:25:11;37.63;;;24.10;;
48554;SDS011;34336;48.270;16.716;2024-01-06T11:27:41;38.35;;;24.90;;
48554;SDS011;34336;48.270;16.716;2024-01-06T11:30:21;35.95;;;24.15;;
48554;SDS011;34336;48.270;16.716;2024-01-06T11:32:50;37.55;;;23.95;;
48554;SDS011;34336;48.270;16.716;2024-01-06T11:35:19;37.13;;;24.25;;
48554;SDS011;34336;48.270;16.716;2024-01-06T11:42:57;36.90;;;24.38;;
48554;SDS011;34336;48.270;16.716;2024-01-06T11:45:25;36.53;;;23.73;;
48554;SDS011;34336;48.270;16.716;2024-01-06T11:47:57;36.53;;;23.05;;
48554;SDS011;34336;48.270;16.716;2024-01-06T11:50:30;38.85;;;25.15;;
48554;SDS011;34336;48.270;16.716;2024-01-06T11:52:58;38.13;;;23.83;;
48554;SDS011;34336;48.270;16.716;2024-01-06T11:55:26;35.40;;;23.10;;
48554;SDS011;34336;48.270;16.716;2024-01-06T11:57:55;37.65;;;23.10;;
48554;SDS011;34336;48.270;16.716;2024-01-06T12:00:24;35.30;;;23.67;;
48554;SDS011;34336;48.270;16.716;2024-01-06T12:02:55;35.08;;;23.45;;
48554;SDS011;34336;48.270;16.716;2024-01-06T12:05:24;34.95;;;23.65;;
48554;SDS011;34336;48.270;16.716;2024-01-06T12:07:59;34.85;;;22.52;;
48554;SDS011;34336;48.270;16.716;2024-01-06T12:10:28;30.80;;;21.08;;
48554;SDS011;34336;48.270;16.716;2024-01-06T12:12:59;32.35;;;20.88;;
48554;SDS011;34336;48.270;16.716;2024-01-06T12:15:28;33.00;;;20.67;;
48554;SDS011;34336;48.270;16.716;2024-01-06T12:17:57;30.23;;;20.00;;
48554;SDS011;34336;48.270;16.716;2024-01-06T12:20:25;27.15;;;19.15;;
48554;SDS011;34336;48.270;16.716;2024-01-06T12:22:55;27.40;;;19.50;;
48554;SDS011;34336;48.270;16.716;2024-01-06T12:25:23;27.20;;;18.45;;
48554;SDS011;34336;48.270;16.716;2024-01-06T12:27:52;28.13;;;19.20;;
48554;SDS011;34336;48.270;16.716;2024-01-06T12:30:21;26.05;;;18.85;;
48554;SDS011;34336;48.270;16.716;2024-01-06T12:32:50;23.80;;;17.55;;
48554;SDS011;34336;48.270;16.716;2024-01-06T12:35:21;24.55;;;17.55;;
48554;SDS011;34336;48.270;16.716;2024-01-06T12:37:49;24.88;;;17.15;;
48554;SDS011;34336;48.270;16.716;2024-01-06T12:40:18;25.25;;;17.15;;
48554;SDS011;34336;48.270;16.716;2024-01-06T12:42:46;24.45;;;17.55;;
48554;SDS011;34336;48.270;16.716;2024-01-06T12:45:14;23.88;;;16.98;;
48554;SDS011;34336;48.270;16.716;2024-01-06T12:47:43;31.75;;;18.27;;
48554;SDS011;34336;48.270;16.716;2024-01-06T12:50:11;29.30;;;18.52;;
48554;SDS011;34336;48.270;16.716;2024-01-06T12:52:39;28.60;;;20.35;;
48554;SDS011;34336;48.270;16.716;2024-01-06T12:55:08;29.95;;;19.35;;
48554;SDS011;34336;48.270;16.716;2024-01-06T12:57:36;29.25;;;19.40;;
48554;SDS011;34336;48.270;16.716;2024-01-06T13:00:04;31.52;;;21.13;;
48554;SDS011;34336;48.270;16.716;2024-01-06T13:02:34;32.80;;;20.85;;
48554;SDS011;34336;48.270;16.716;2024-01-06T13:05:02;36.22;;;23.88;;
48554;SDS011;34336;48.270;16.716;2024-01-06T13:07:31;34.53;;;23.10;;
48554;SDS011;34336;48.270;16.716;2024-01-06T13:09:59;35.75;;;23.50;;
48554;SDS011;34336;48.270;16.716;2024-01-06T13:12:28;49.40;;;29.58;;
48554;SDS011;34336;48.270;16.716;2024-01-06T13:14:56;39.40;;;25.27;;
48554;SDS011;34336;48.270;16.716;2024-01-06T13:17:24;43.20;;;26.17;;
48554;SDS011;34336;48.270;16.716;2024-01-06T13:19:52;39.58;;;25.23;;
48554;SDS011;34336;48.270;16.716;2024-01-06T13:22:19;42.38;;;26.38;;
48554;SDS011;34336;48.270;16.716;2024-01-06T13:24:48;38.63;;;25.40;;
48554;SDS011;34336;48.270;16.716;2024-01-06T13:27:19;42.50;;;27.67;;
48554;SDS011;34336;48.270;16.716;2024-01-06T13:29:47;43.10;;;27.35;;
48554;SDS011;34336;48.270;16.716;2024-01-06T13:32:15;42.97;;;26.90;;
48554;SDS011;34336;48.270;16.716;2024-01-06T13:34:43;46.67;;;29.67;;
48554;SDS011;34336;48.270;16.716;2024-01-06T13:37:11;47.13;;;30.00;;
48554;SDS011;34336;48.270;16.716;2024-01-06T13:39:39;42.58;;;28.42;;
48554;SDS011;34336;48.270;16.716;2024-01-06T13:42:07;41.70;;;27.70;;
48554;SDS011;34336;48.270;16.716;2024-01-06T13:44:35;46.42;;;27.85;;
48554;SDS011;34336;48.270;16.716;2024-01-06T13:47:02;43.08;;;28.30;;
48554;SDS011;34336;48.270;16.716;2024-01-06T13:49:30;43.78;;;27.88;;
48554;SDS011;34336;48.270;16.716;2024-01-06T13:51:58;46.20;;;28.48;;
48554;SDS011;34336;48.270;16.716;2024-01-06T13:54:26;42.05;;;27.45;;
48554;SDS011;34336;48.270;16.716;2024-01-06T13:56:54;41.20;;;27.38;;
48554;SDS011;34336;48.270;16.716;2024-01-06T13:59:22;40.75;;;26.95;;
48554;SDS011;34336;48.270;16.716;2024-01-06T14:01:50;40.70;;;26.38;;
48554;SDS011;34336;48.270;16.716;2024-01-06T14:04:17;41.72;;;27.45;;
48554;SDS011;34336;48.270;16.716;2024-01-06T14:06:45;38.10;;;26.75;;
48554;SDS011;34336;48.270;16.716;2024-01-06T14:09:15;40.97;;;26.45;;
48554;SDS011;34336;48.270;16.716;2024-01-06T14:11:43;39.60;;;25.70;;
48554;SDS011;34336;48.270;16.716;2024-01-06T14:14:11;39.67;;;24.92;;
48554;SDS011;34336;48.270;16.716;2024-01-06T14:16:40;36.55;;;23.77;;
48554;SDS011;34336;48.270;16.716;2024-01-06T14:19:10;37.03;;;25.15;;
48554;SDS011;34336;48.270;16.716;2024-01-06T14:21:38;38.15;;;25.65;;